Time;durP1;ratioP1;P1;durP2;ratioP2;P2;SDS_P1;SDS_P2;PMS_P1;PMS_P2;Temp;Humidity;BMP_temperature;BMP_pressure;BME280_temperature;BME280_humidity;BME280_pressure;Samples;Min_cycle;Max_cycle;Signal;HPM_P1;HPM_P2
2022/05/08 00:00:13;;;;;;;6.20;1.05;;;;;;;5.69;49.04;102780.84;4976099;28;20155;-69
2022/05/08 00:02:40;;;;;;;10.38;1.27;;;;;;;5.59;49.11;102777.25;4996871;28;20038;-71
2022/05/08 00:05:09;;;;;;;12.35;0.80;;;;;;;5.49;49.62;102781.47;4995850;28;20029;-71
2022/05/08 00:07:35;;;;;;;10.68;1.48;;;;;;;5.47;49.59;102783.19;4996468;28;20037;-71
2022/05/08 00:10:00;;;;;;;7.10;0.95;;;;;;;5.52;49.55;102784.09;4997143;28;20189;-71
2022/05/08 00:12:26;;;;;;;8.13;1.17;;;;;;;5.61;49.31;102783.34;5012481;28;20050;-69
2022/05/08 00:14:51;;;;;;;6.30;1.20;;;;;;;5.67;49.01;102783.41;4990323;28;20117;-69
2022/05/08 00:17:18;;;;;;;5.40;0.70;;;;;;;5.69;48.36;102775.66;4997873;28;20085;-70
2022/05/08 00:19:45;;;;;;;6.15;1.25;;;;;;;5.60;48.44;102779.88;4998774;28;20526;-68
2022/05/08 00:22:11;;;;;;;5.20;0.60;;;;;;;5.66;48.15;102782.53;4996032;28;20596;-68
2022/05/08 00:24:38;;;;;;;10.13;1.20;;;;;;;5.88;47.55;102777.56;4998374;28;20695;-69
2022/05/08 00:27:04;;;;;;;7.05;0.52;;;;;;;5.86;47.56;102776.72;4994930;28;20046;-68
2022/05/08 00:29:29;;;;;;;5.80;1.08;;;;;;;5.91;47.12;102771.56;5010101;28;20510;-68
2022/05/08 00:31:55;;;;;;;5.03;0.68;;;;;;;5.82;47.25;102775.78;5009506;28;20029;-68
2022/05/08 00:34:22;;;;;;;4.72;0.70;;;;;;;5.80;47.64;102768.84;5012389;28;20034;-69
2022/05/08 00:36:47;;;;;;;4.35;0.73;;;;;;;5.78;47.49;102780.94;4996237;28;20262;-68
2022/05/08 00:39:13;;;;;;;8.40;1.13;;;;;;;5.74;47.68;102774.84;4997794;28;20034;-69
2022/05/08 00:41:39;;;;;;;5.53;1.10;;;;;;;5.78;47.37;102780.94;5010242;28;20073;-69
2022/05/08 00:44:05;;;;;;;3.58;0.77;;;;;;;5.86;47.26;102780.16;4994819;28;20136;-68
2022/05/08 00:46:31;;;;;;;6.38;1.15;;;;;;;5.87;47.01;102771.50;4997005;28;20531;-68
2022/05/08 00:48:57;;;;;;;5.60;0.73;;;;;;;5.81;47.52;102775.78;4994197;28;20507;-68
2022/05/08 00:51:24;;;;;;;6.13;0.70;;;;;;;5.78;47.52;102773.16;4996623;28;20115;-68
2022/05/08 00:53:52;;;;;;;7.85;1.08;;;;;;;5.88;47.35;102770.69;4993368;28;20419;-68
2022/05/08 00:56:18;;;;;;;4.55;0.73;;;;;;;5.89;46.93;102774.13;4997985;28;20097;-68
2022/05/08 00:58:45;;;;;;;2.83;0.57;;;;;;;5.90;46.47;102773.25;4996170;28;20040;-68
2022/05/08 01:01:13;;;;;;;10.35;2.05;;;;;;;5.88;46.58;102772.38;5010447;28;20045;-68
2022/05/08 01:03:39;;;;;;;3.72;0.40;;;;;;;5.81;46.90;102770.56;4994545;28;20046;-71
2022/05/08 01:06:07;;;;;;;11.30;1.40;;;;;;;5.85;46.91;102769.75;4995541;28;20069;-71
2022/05/08 01:08:34;;;;;;;8.85;1.13;;;;;;;5.78;46.51;102765.38;4995796;28;20090;-69
2022/05/08 01:11:05;;;;;;;6.63;1.13;;;;;;;5.77;47.21;102771.41;4978550;28;20475;-69
2022/05/08 01:13:31;;;;;;;6.10;1.48;;;;;;;5.66;46.99;102772.16;4996870;28;20341;-68
2022/05/08 01:15:56;;;;;;;6.65;0.73;;;;;;;5.63;47.18;102766.94;4994773;28;20455;-67
2022/05/08 01:18:22;;;;;;;10.88;1.00;;;;;;;5.57;47.64;102766.00;4995555;28;20529;-68
2022/05/08 01:20:48;;;;;;;8.52;0.77;;;;;;;5.59;47.67;102765.19;4994468;28;20045;-70
2022/05/08 01:23:23;;;;;;;10.25;0.85;;;;;;;5.72;47.28;102763.56;4996381;28;20064;-69
2022/05/08 01:25:56;;;;;;;8.57;0.82;;;;;;;5.70;47.40;102759.22;4995787;28;20746;-70
2022/05/08 01:28:24;;;;;;;7.28;0.77;;;;;;;5.86;46.82;102761.13;4996582;28;20333;-69
2022/05/08 01:30:52;;;;;;;7.82;0.70;;;;;;;5.69;47.16;102752.31;4994361;28;22264;-71
2022/05/08 01:33:19;;;;;;;18.77;1.30;;;;;;;5.42;47.59;102764.09;4994495;28;20068;-70
2022/05/08 01:35:46;;;;;;;3.83;0.52;;;;;;;5.46;47.63;102760.69;4995078;28;20048;-70
2022/05/08 01:38:14;;;;;;;12.40;0.88;;;;;;;5.47;47.49;102754.66;4995000;28;20042;-70
2022/05/08 01:40:40;;;;;;;9.20;1.25;;;;;;;5.49;47.20;102755.53;5009896;28;20030;-70
2022/05/08 01:43:06;;;;;;;4.38;0.50;;;;;;;5.48;47.03;102755.50;4995041;28;20050;-71
2022/05/08 01:45:32;;;;;;;10.93;0.98;;;;;;;5.40;47.07;102755.44;4995880;28;20274;-73
2022/05/08 01:50:42;;;;;;;3.60;0.52;;;;;;;5.29;47.74;102765.69;4993452;28;20038;-73
2022/05/08 01:53:07;;;;;;;4.80;1.00;;;;;;;5.14;47.59;102773.25;5010703;28;20081;-71
2022/05/08 01:55:33;;;;;;;11.25;1.25;;;;;;;5.12;47.56;102765.44;4995877;28;20041;-67
2022/05/08 01:57:59;;;;;;;3.75;0.77;;;;;;;5.19;47.06;102764.69;4994333;28;20216;-69
2022/05/08 02:00:26;;;;;;;8.57;0.82;;;;;;;5.11;47.13;102761.13;4998076;28;20104;-71
2022/05/08 02:02:52;;;;;;;2.78;0.60;;;;;;;5.02;47.41;102763.59;4994295;28;20091;-70
2022/05/08 02:05:22;;;;;;;6.95;0.60;;;;;;;5.09;47.31;102761.97;4997593;28;20240;-71
2022/05/08 02:07:49;;;;;;;3.30;0.88;;;;;;;5.10;46.80;102767.19;4994423;28;20128;-70
2022/05/08 02:10:16;;;;;;;6.50;0.40;;;;;;;5.05;47.12;102771.41;4997760;28;20053;-70
2022/05/08 02:12:42;;;;;;;3.20;0.50;;;;;;;5.01;47.28;102765.34;4994169;28;20485;-71
2022/05/08 02:15:10;;;;;;;5.63;0.50;;;;;;;5.14;46.51;102761.16;4997519;28;20498;-70
2022/05/08 02:17:36;;;;;;;1.40;0.20;;;;;;;5.10;46.82;102764.59;4996950;28;20050;-71
2022/05/08 02:20:04;;;;;;;7.70;0.35;;;;;;;4.98;47.45;102762.69;4997403;28;20178;-70
2022/05/08 02:22:29;;;;;;;2.75;0.40;;;;;;;4.98;47.32;102759.22;4997252;28;20967;-70
2022/05/08 02:24:55;;;;;;;6.63;0.60;;;;;;;5.04;47.21;102759.31;4995221;28;20080;-71
2022/05/08 02:27:20;;;;;;;6.32;0.57;;;;;;;4.96;47.57;102758.31;4991723;28;20503;-70
2022/05/08 02:29:50;;;;;;;5.60;0.38;;;;;;;4.89;47.49;102767.72;4996862;28;20519;-71
2022/05/08 02:32:17;;;;;;;12.90;1.10;;;;;;;4.75;47.88;102762.31;4994869;28;20103;-71
2022/05/08 02:34:43;;;;;;;9.00;0.57;;;;;;;4.71;47.97;102768.31;4996541;28;20038;-71
2022/05/08 02:37:09;;;;;;;5.95;0.50;;;;;;;4.77;47.70;102759.78;4996676;28;20338;-72
2022/05/08 02:39:35;;;;;;;1.95;0.63;;;;;;;4.69;47.92;102770.00;4998794;28;20029;-72
2022/05/08 02:42:01;;;;;;;2.80;0.38;;;;;;;4.64;48.10;102775.13;4994627;28;20038;-72
2022/05/08 02:44:26;;;;;;;7.07;0.57;;;;;;;4.48;48.28;102767.09;5013284;28;20487;-72
2022/05/08 02:46:52;;;;;;;5.20;0.75;;;;;;;4.67;48.01;102763.06;4995854;28;20117;-72
2022/05/08 02:49:17;;;;;;;4.88;0.75;;;;;;;4.77;47.38;102759.78;4996444;28;20049;-71
2022/05/08 02:51:43;;;;;;;4.95;0.88;;;;;;;4.77;47.46;102767.53;4995846;28;20048;-71
2022/05/08 02:54:08;;;;;;;8.20;0.40;;;;;;;4.72;47.54;102770.06;4997031;28;20574;-71
2022/05/08 02:59:17;;;;;;;4.90;1.10;;;;;;;4.57;48.05;102762.06;4999767;28;20052;-71
2022/05/08 03:01:43;;;;;;;4.68;0.50;;;;;;;4.59;48.04;102766.41;5013626;28;20042;-71
2022/05/08 03:04:11;;;;;;;4.53;0.50;;;;;;;4.56;48.41;102768.94;4998574;28;20498;-71
2022/05/08 03:06:36;;;;;;;3.55;0.75;;;;;;;4.50;48.46;102773.16;4999179;28;20038;-71
2022/05/08 03:09:03;;;;;;;4.32;0.20;;;;;;;4.65;48.46;102773.38;4995446;28;20057;-71
2022/05/08 03:11:32;;;;;;;7.80;0.50;;;;;;;4.60;48.13;102772.47;5000631;28;20037;-71
2022/05/08 03:13:59;;;;;;;3.03;0.30;;;;;;;4.55;48.32;102769.81;5012246;28;20674;-71
2022/05/08 03:16:28;;;;;;;7.18;0.55;;;;;;;4.41;48.63;102772.19;4999779;28;20629;-72
2022/05/08 03:18:55;;;;;;;7.25;0.40;;;;;;;4.29;49.11;102771.97;4995292;28;20100;-71
2022/05/08 03:21:21;;;;;;;7.93;0.40;;;;;;;4.49;48.64;102768.84;4998971;28;20053;-72
2022/05/08 03:23:48;;;;;;;4.78;0.50;;;;;;;4.45;48.61;102767.91;4992611;28;20076;-70
2022/05/08 03:26:14;;;;;;;5.15;1.05;;;;;;;4.48;48.74;102762.78;4994569;28;20475;-70
2022/05/08 03:28:41;;;;;;;4.07;0.43;;;;;;;4.48;48.37;102767.09;4998106;28;20046;-72
2022/05/08 03:31:08;;;;;;;7.43;0.40;;;;;;;4.42;48.81;102766.13;4981834;28;20018;-74
2022/05/08 03:33:35;;;;;;;7.18;1.20;;;;;;;4.46;48.53;102763.63;4998416;28;20054;-77
2022/05/08 03:36:01;;;;;;;5.28;0.65;;;;;;;4.36;48.28;102771.25;5012358;28;21877;-73
2022/05/08 03:38:27;;;;;;;5.50;0.60;;;;;;;4.31;48.56;102769.41;4981700;28;20050;-73
2022/05/08 03:40:54;;;;;;;4.15;0.65;;;;;;;4.25;48.54;102764.13;4996347;28;20034;-71
2022/05/08 03:43:21;;;;;;;8.13;0.50;;;;;;;4.36;48.37;102763.47;4999557;28;20040;-71
2022/05/08 03:45:50;;;;;;;6.93;0.85;;;;;;;4.25;48.49;102766.72;4997741;28;20045;-75
2022/05/08 03:48:16;;;;;;;2.90;0.40;;;;;;;4.20;49.17;102771.81;5000530;28;20685;-76
2022/05/08 03:50:42;;;;;;;4.88;0.40;;;;;;;4.25;48.92;102767.56;4995285;28;20045;-76
2022/05/08 03:53:08;;;;;;;2.95;0.88;;;;;;;4.25;49.17;102772.75;4998267;28;20330;-76
2022/05/08 03:55:34;;;;;;;4.55;0.73;;;;;;;4.31;48.84;102770.28;4998286;28;20121;-75
2022/05/08 03:57:59;;;;;;;2.85;0.30;;;;;;;4.32;48.50;102777.22;4993745;28;20053;-76
2022/05/08 04:00:25;;;;;;;7.82;0.82;;;;;;;4.35;48.83;102771.22;4998899;28;20057;-75
2022/05/08 04:02:50;;;;;;;5.90;0.43;;;;;;;4.34;48.99;102764.28;4997541;28;20129;-76
2022/05/08 04:05:16;;;;;;;4.07;0.40;;;;;;;4.37;49.02;102770.38;5013527;28;20376;-75
2022/05/08 04:07:42;;;;;;;5.43;0.85;;;;;;;4.42;48.92;102768.72;4997275;28;20534;-73
2022/05/08 04:10:08;;;;;;;4.40;0.50;;;;;;;4.42;49.15;102768.72;4998579;28;20099;-74
2022/05/08 04:12:35;;;;;;;9.55;0.88;;;;;;;4.42;49.59;102771.31;4991907;28;20141;-73
2022/05/08 04:15:01;;;;;;;4.93;0.80;;;;;;;4.66;49.02;102769.97;4997360;28;21850;-75
2022/05/08 04:17:29;;;;;;;3.28;0.60;;;;;;;4.65;49.10;102775.97;5012000;28;20495;-75
2022/05/08 04:19:55;;;;;;;2.58;0.32;;;;;;;4.91;48.29;102778.13;5010658;28;20474;-75
2022/05/08 04:25:07;;;;;;;4.35;0.73;;;;;;;5.17;48.06;102779.38;4995561;28;20204;-75
2022/05/08 04:27:37;;;;;;;4.78;0.40;;;;;;;5.22;47.57;102775.09;5012301;28;20095;-75
2022/05/08 04:30:04;;;;;;;11.95;0.50;;;;;;;5.31;47.20;102779.53;4996401;28;20034;-70
2022/05/08 04:32:29;;;;;;;6.97;0.73;;;;;;;5.35;47.65;102783.91;4997771;28;20045;-70
2022/05/08 04:34:55;;;;;;;4.28;0.60;;;;;;;5.41;47.24;102785.69;4995357;28;20037;-69
2022/05/08 04:37:20;;;;;;;8.02;1.63;;;;;;;5.40;47.48;102783.97;4998560;28;20050;-70
2022/05/08 04:39:45;;;;;;;6.28;0.65;;;;;;;5.49;47.28;102785.81;4997231;28;20438;-70
2022/05/08 04:42:11;;;;;;;3.08;0.30;;;;;;;5.67;46.77;102788.59;4996342;28;20428;-74
2022/05/08 04:44:37;;;;;;;14.00;1.45;;;;;;;5.67;46.36;102788.59;5000359;28;20037;-75
2022/05/08 04:47:03;;;;;;;3.08;0.40;;;;;;;5.67;46.58;102783.41;4994870;28;20558;-74
2022/05/08 04:49:29;;;;;;;10.68;0.30;;;;;;;5.61;46.85;102791.13;4999701;28;20099;-75
2022/05/08 04:51:55;;;;;;;6.72;0.50;;;;;;;5.83;46.20;102790.50;5010745;28;20065;-74
2022/05/08 04:54:23;;;;;;;8.90;0.57;;;;;;;6.12;45.65;102791.66;4999749;28;20033;-75
2022/05/08 04:56:48;;;;;;;5.15;0.60;;;;;;;6.21;45.74;102791.72;4995027;28;20160;-74
2022/05/08 04:59:15;;;;;;;6.55;0.40;;;;;;;6.64;44.86;102794.69;4997953;28;20034;-75
2022/05/08 05:01:41;;;;;;;7.50;0.60;;;;;;;7.10;44.22;102792.41;4996717;28;20124;-72
2022/05/08 05:04:07;;;;;;;4.90;0.45;;;;;;;8.07;42.35;102796.22;4990064;28;20485;-74
2022/05/08 05:06:33;;;;;;;6.07;0.45;;;;;;;8.31;40.98;102789.28;4998270;28;20113;-75
2022/05/08 05:09:01;;;;;;;7.15;0.73;;;;;;;7.91;42.22;102797.03;4981516;28;20116;-74
2022/05/08 05:11:27;;;;;;;10.55;1.40;;;;;;;8.09;41.74;102798.81;5013497;28;20057;-74
2022/05/08 05:13:52;;;;;;;13.90;1.10;;;;;;;7.80;42.17;102801.38;4995244;28;20077;-75
2022/05/08 05:16:18;;;;;;;11.45;0.85;;;;;;;8.26;41.51;102806.66;4997332;28;20033;-74
2022/05/08 05:18:44;;;;;;;11.57;0.63;;;;;;;7.73;42.43;102803.09;4996496;28;20070;-75
2022/05/08 05:21:09;;;;;;;1.88;0.30;;;;;;;7.77;42.45;102806.56;4978851;28;20050;-74
2022/05/08 05:23:35;;;;;;;5.90;0.77;;;;;;;7.71;42.68;102808.31;4997283;28;20053;-74
2022/05/08 05:26:01;;;;;;;12.55;0.95;;;;;;;8.02;42.13;102812.69;5010807;28;20029;-72
2022/05/08 05:28:26;;;;;;;3.42;0.85;;;;;;;8.45;40.85;102813.63;4996626;28;20549;-71
2022/05/08 05:30:51;;;;;;;6.45;0.80;;;;;;;8.69;39.45;102812.72;5009506;28;20068;-75
2022/05/08 05:33:21;;;;;;;3.08;0.50;;;;;;;10.08;37.70;102818.31;5012274;28;20559;-74
2022/05/08 05:35:46;;;;;;;6.25;0.60;;;;;;;10.07;37.88;102820.94;4997092;28;20537;-74
2022/05/08 05:38:12;;;;;;;8.50;0.93;;;;;;;10.80;36.56;102822.06;4995519;28;20044;-74
2022/05/08 05:40:37;;;;;;;6.80;0.90;;;;;;;12.29;33.15;102814.97;5013516;28;20088;-75
2022/05/08 05:43:03;;;;;;;3.50;0.30;;;;;;;14.15;31.46;102821.75;4988406;28;20045;-74
2022/05/08 05:45:28;;;;;;;3.72;0.30;;;;;;;15.65;28.71;102818.59;5011153;28;20087;-75
2022/05/08 05:47:54;;;;;;;13.07;0.85;;;;;;;14.93;27.62;102819.75;4994295;28;20041;-74
2022/05/08 05:50:23;;;;;;;4.65;0.70;;;;;;;12.54;31.15;102830.28;4994729;28;20112;-73
2022/05/08 05:52:50;;;;;;;13.20;1.23;;;;;;;10.25;35.52;102836.47;5010399;28;20235;-72
2022/05/08 05:55:16;;;;;;;5.47;0.30;;;;;;;10.93;34.46;102836.81;5011846;28;20388;-72
2022/05/08 05:57:43;;;;;;;2.85;0.45;;;;;;;12.42;32.36;102836.56;5010889;28;20054;-73
2022/05/08 06:00:11;;;;;;;4.93;0.60;;;;;;;14.86;28.83;102830.50;5010715;28;20037;-73
2022/05/08 06:02:43;;;;;;;7.15;0.52;;;;;;;16.88;26.13;102828.63;4995465;28;20100;-73
2022/05/08 06:05:09;;;;;;;5.32;0.80;;;;;;;14.58;27.94;102828.59;4995674;28;20046;-72
2022/05/08 06:07:37;;;;;;;5.82;0.38;;;;;;;13.28;30.80;102841.16;5013328;28;20422;-71
2022/05/08 06:10:06;;;;;;;8.52;0.65;;;;;;;11.71;32.72;102841.97;4994874;28;20040;-71
2022/05/08 06:12:31;;;;;;;8.63;0.60;;;;;;;11.00;34.39;102848.94;4995990;28;20058;-71
2022/05/08 06:14:57;;;;;;;6.03;0.60;;;;;;;10.63;34.93;102849.25;4995077;28;20030;-69
2022/05/08 06:17:22;;;;;;;4.55;0.65;;;;;;;10.61;35.25;102850.13;4995847;28;20575;-74
2022/05/08 06:19:48;;;;;;;6.93;0.82;;;;;;;10.48;35.49;102859.84;4978584;28;20194;-73
2022/05/08 06:22:13;;;;;;;7.00;0.82;;;;;;;9.74;35.93;102857.66;4992791;28;20442;-73
2022/05/08 06:24:39;;;;;;;9.75;0.82;;;;;;;10.90;34.92;102855.13;4995747;28;20033;-67
2022/05/08 06:27:05;;;;;;;10.05;1.30;;;;;;;14.44;29.70;102849.13;4994615;28;20423;-71
2022/05/08 06:29:32;;;;;;;6.65;0.70;;;;;;;15.90;26.52;102845.06;4994587;28;20545;-75
2022/05/08 06:31:58;;;;;;;9.48;0.80;;;;;;;15.23;27.66;102847.94;4997543;28;20038;-74
2022/05/08 06:34:23;;;;;;;5.13;0.65;;;;;;;13.90;29.08;102856.50;5017079;28;20527;-74
2022/05/08 06:36:48;;;;;;;4.65;1.33;;;;;;;13.35;29.93;102859.41;4998362;28;20089;-69
2022/05/08 06:39:34;;;;;;;6.90;0.90;;;;;;;13.67;29.79;102859.66;5005271;28;20033;-74
2022/05/08 06:42:00;;;;;;;6.38;0.30;;;;;;;14.62;28.14;102864.44;4978847;28;20065;-72
2022/05/08 06:44:30;;;;;;;5.55;0.77;;;;;;;15.90;26.36;102855.59;5013724;28;20598;-73
2022/05/08 06:46:56;;;;;;;12.60;1.05;;;;;;;16.35;26.00;102863.84;4997931;28;20041;-74
2022/05/08 06:49:21;;;;;;;8.75;0.57;;;;;;;18.63;23.25;102863.22;5015012;28;20042;-75
2022/05/08 06:51:48;;;;;;;6.97;1.10;;;;;;;18.05;24.08;102864.72;4997256;28;20121;-75
2022/05/08 06:54:14;;;;;;;6.28;0.68;;;;;;;18.68;22.77;102864.78;4999019;28;20022;-76
2022/05/08 06:56:41;;;;;;;12.10;0.90;;;;;;;16.94;24.24;102872.44;5002471;28;20034;-71
2022/05/08 07:01:59;;;;;;;3.90;0.50;;;;;;;13.73;29.07;102879.66;5003321;28;20050;-71
2022/05/08 07:04:25;;;;;;;5.90;0.40;;;;;;;12.57;30.97;102882.69;4998648;28;20041;-72
2022/05/08 07:06:51;;;;;;;5.18;0.90;;;;;;;15.44;27.45;102889.47;4995704;28;20126;-69
2022/05/08 07:09:17;;;;;;;6.65;1.23;;;;;;;15.29;26.96;102890.78;4997618;28;20030;-69
2022/05/08 07:11:47;;;;;;;6.90;0.50;;;;;;;17.02;25.10;102883.59;4996688;28;20041;-69
2022/05/08 07:14:16;;;;;;;3.60;0.30;;;;;;;19.28;22.07;102891.31;4999951;28;20029;-71
2022/05/08 07:16:42;;;;;;;9.30;0.73;;;;;;;19.36;21.84;102884.78;4998024;28;20030;-67
2022/05/08 07:19:08;;;;;;;17.30;1.45;;;;;;;19.80;21.31;102879.25;4998470;28;20034;-71
2022/05/08 07:21:34;;;;;;;6.25;0.60;;;;;;;20.51;20.57;102874.00;4998904;28;20037;-71
2022/05/08 07:24:00;;;;;;;2.55;0.60;;;;;;;20.13;21.00;102885.56;5011998;28;20034;-71
2022/05/08 07:26:25;;;;;;;7.82;0.80;;;;;;;20.14;21.03;102891.72;5014149;28;20041;-70
2022/05/08 07:28:50;;;;;;;9.20;0.50;;;;;;;20.70;20.27;102889.84;4995409;28;20053;-70
2022/05/08 07:31:16;;;;;;;5.72;0.77;;;;;;;19.98;21.22;102891.63;4998529;28;20038;-69
2022/05/08 07:33:42;;;;;;;11.23;1.45;;;;;;;21.41;20.13;102902.09;5013002;28;20053;-70
2022/05/08 07:36:13;;;;;;;7.50;1.13;;;;;;;20.59;20.07;102892.19;4998111;28;20400;-71
2022/05/08 07:38:44;;;;;;;5.53;0.55;;;;;;;21.76;19.04;102902.84;4997184;28;20084;-70
2022/05/08 07:41:11;;;;;;;17.50;1.38;;;;;;;21.69;18.82;102904.97;4997942;28;20436;-73
2022/05/08 07:43:37;;;;;;;7.97;1.23;;;;;;;22.43;18.19;102908.78;4998657;28;20056;-69
2022/05/08 07:46:04;;;;;;;6.65;0.85;;;;;;;22.75;17.54;102904.22;4995490;28;20041;-72
2022/05/08 07:48:29;;;;;;;7.85;0.38;;;;;;;21.07;19.26;102901.25;4997626;28;20701;-74
2022/05/08 07:50:57;;;;;;;11.65;1.13;;;;;;;20.53;19.97;102901.34;4991844;28;20081;-74
2022/05/08 07:53:23;;;;;;;8.68;1.23;;;;;;;22.01;19.08;102904.97;4997570;28;20038;-73
2022/05/08 07:55:51;;;;;;;6.30;1.60;;;;;;;22.20;19.65;102909.25;4997174;28;20052;-74
2022/05/08 07:58:18;;;;;;;12.18;0.80;;;;;;;20.41;20.05;102908.09;5011933;28;20494;-74
2022/05/08 08:00:44;;;;;;;7.13;0.85;;;;;;;17.72;23.22;102908.38;4997010;28;20040;-74
2022/05/08 08:03:10;;;;;;;6.70;0.82;;;;;;;15.42;26.26;102912.38;4995165;28;20058;-74
2022/05/08 08:05:35;;;;;;;5.00;0.63;;;;;;;14.96;27.33;102919.72;5013054;28;20042;-73
2022/05/08 08:08:02;;;;;;;6.00;1.08;;;;;;;14.71;27.10;102908.09;4991603;28;20034;-74
2022/05/08 08:10:29;;;;;;;8.77;1.05;;;;;;;13.98;29.12;102921.19;4999693;28;20038;-75
2022/05/08 08:12:56;;;;;;;7.53;0.85;;;;;;;14.04;29.08;102926.31;4995049;28;20137;-74
2022/05/08 08:15:22;;;;;;;2.85;0.40;;;;;;;14.98;27.79;102922.31;4999147;28;20111;-73
2022/05/08 08:17:48;;;;;;;5.97;1.45;;;;;;;13.87;27.89;102922.28;5009519;28;20046;-75
2022/05/08 08:20:13;;;;;;;6.93;0.60;;;;;;;13.42;29.47;102931.94;4995620;28;20049;-72
2022/05/08 08:22:39;;;;;;;9.40;0.82;;;;;;;13.64;29.59;102932.41;5010701;28;20442;-70
2022/05/08 08:25:05;;;;;;;6.43;0.70;;;;;;;14.62;28.19;102930.25;4996754;28;20042;-74
2022/05/08 08:27:32;;;;;;;9.70;1.10;;;;;;;14.81;28.24;102933.25;5009868;28;20037;-74
2022/05/08 08:29:59;;;;;;;5.88;0.63;;;;;;;15.50;26.90;102930.59;4995226;28;20042;-74
2022/05/08 08:32:26;;;;;;;7.43;0.40;;;;;;;16.25;26.15;102930.16;4996986;28;20149;-74
2022/05/08 08:34:53;;;;;;;10.68;0.75;;;;;;;17.29;24.76;102936.34;4994186;28;20448;-74
2022/05/08 08:37:19;;;;;;;8.00;1.05;;;;;;;17.03;25.60;102928.44;5011870;28;20255;-75
2022/05/08 08:39:45;;;;;;;4.65;0.40;;;;;;;15.99;26.10;102932.69;5001978;23;20054;-80
2022/05/08 08:42:28;;;;;;;3.85;0.47;;;;;;;14.18;28.42;102947.91;4982500;28;20034;-82
2022/05/08 08:47:58;;;;;;;7.10;0.90;;;;;;;18.96;23.18;102936.91;4998627;28;20042;-78
2022/05/08 08:50:28;;;;;;;7.60;1.00;;;;;;;18.93;23.04;102939.72;4953353;28;20096;-79
2022/05/08 08:52:56;;;;;;;4.93;0.60;;;;;;;17.55;24.29;102949.53;5001029;28;20540;-80
2022/05/08 08:55:22;;;;;;;8.35;0.60;;;;;;;16.86;24.91;102953.72;4983311;28;20027;-78
2022/05/08 08:57:51;;;;;;;16.17;2.25;;;;;;;18.02;22.97;102949.50;5004804;28;20049;-79
2022/05/08 09:00:18;;;;;;;5.70;1.27;;;;;;;19.14;22.31;102946.72;4969166;28;20034;-75
2022/05/08 09:02:48;;;;;;;6.82;0.63;;;;;;;16.61;24.62;102949.22;5002863;28;20076;-78
2022/05/08 09:05:32;;;;;;;4.53;0.98;;;;;;;17.05;25.37;102951.31;4970452;28;20149;-83
2022/05/08 09:08:33;;;;;;;13.52;3.75;;;;;;;17.85;23.60;102946.66;4970117;28;20038;-79
2022/05/08 09:11:00;;;;;;;6.45;0.50;;;;;;;17.79;23.97;102944.25;4967640;28;20030;-78
2022/05/08 09:13:29;;;;;;;10.25;1.10;;;;;;;17.48;23.72;102945.38;4961037;28;20077;-80
2022/05/08 09:16:08;;;;;;;9.95;0.98;;;;;;;17.91;24.58;102945.56;4964361;28;20045;-80
2022/05/08 09:18:48;;;;;;;5.05;1.17;;;;;;;16.06;25.77;102954.44;4985362;28;20942;-80
2022/05/08 09:24:13;;;;;;;9.40;0.95;;;;;;;16.02;25.86;102944.03;4984122;28;20441;-80
2022/05/08 09:26:40;;;;;;;4.63;0.90;;;;;;;15.69;26.26;102952.88;4963372;28;20058;-79
2022/05/08 09:29:07;;;;;;;8.13;0.68;;;;;;;16.08;26.17;102951.78;4963884;28;20108;-81
2022/05/08 09:31:42;;;;;;;5.72;0.43;;;;;;;16.12;27.00;102945.50;4966114;28;20085;-79
2022/05/08 09:34:08;;;;;;;4.60;0.50;;;;;;;15.96;26.67;102945.06;4965084;28;20053;-79
2022/05/08 09:36:34;;;;;;;5.78;0.85;;;;;;;16.12;26.37;102946.34;4962531;28;20041;-78
2022/05/08 09:39:02;;;;;;;5.60;1.02;;;;;;;15.58;27.16;102950.56;4961328;28;20129;-79
2022/05/08 09:41:35;;;;;;;5.03;0.60;;;;;;;15.58;26.96;102945.28;4967689;28;20046;-78
2022/05/08 09:44:15;;;;;;;8.85;0.90;;;;;;;14.38;28.63;102941.31;4960947;28;20097;-81
2022/05/08 09:46:45;;;;;;;11.23;1.08;;;;;;;14.64;28.25;102946.88;4963336;28;20070;-77
2022/05/08 09:49:21;;;;;;;13.15;1.17;;;;;;;15.33;27.47;102946.88;4959705;28;20701;-78
2022/05/08 09:51:48;;;;;;;6.03;0.60;;;;;;;14.83;27.67;102946.41;4962515;28;20523;-80
2022/05/08 09:54:18;;;;;;;8.27;1.60;;;;;;;15.50;27.44;102947.25;4995963;28;20093;-78
2022/05/08 09:56:47;;;;;;;7.35;0.95;;;;;;;15.17;27.92;102956.94;4995654;28;20121;-80
2022/05/08 09:59:14;;;;;;;11.75;0.80;;;;;;;15.33;27.26;102950.38;4965103;28;20033;-80
2022/05/08 10:01:41;;;;;;;10.88;1.20;;;;;;;15.73;26.51;102936.09;5005288;28;20058;-79
2022/05/08 10:04:07;;;;;;;10.15;0.93;;;;;;;15.26;27.70;102945.31;4939839;28;20744;-78
2022/05/08 10:06:39;;;;;;;5.50;1.13;;;;;;;15.41;27.54;102942.25;4968625;28;20034;-80
2022/05/08 10:15:31;;;;;;;7.60;1.33;;;;;;;15.89;27.02;102939.13;4976138;28;22235;-79
2022/05/08 10:18:27;;;;;;;5.80;0.75;;;;;;;15.00;27.23;102924.91;4933121;28;20046;-78
2022/05/08 10:21:08;;;;;;;3.80;0.38;;;;;;;15.33;27.32;102936.34;4985341;28;20042;-81
2022/05/08 10:23:35;;;;;;;12.43;0.80;;;;;;;15.51;26.92;102927.06;4919998;28;20050;-80
2022/05/08 10:26:41;;;;;;;11.25;1.55;;;;;;;15.41;27.17;102926.44;4985848;28;20133;-80
2022/05/08 10:29:13;;;;;;;9.88;1.55;;;;;;;15.16;27.74;102927.09;4966294;28;20042;-76
2022/05/08 10:31:42;;;;;;;;;;;;;;;15.39;28.23;102925.63;5000883;28;20159;-78
2022/05/08 10:34:10;;;;;;;6.13;1.00;;;;;;;15.06;27.10;102925.63;5002587;28;19929;-80
2022/05/08 10:36:37;;;;;;;10.10;1.55;;;;;;;15.41;27.66;102925.59;4987139;28;20069;-78
2022/05/08 10:39:43;;;;;;;6.75;0.82;;;;;;;14.98;27.70;102931.06;4980454;28;20070;-76
2022/05/08 10:42:24;;;;;;;3.85;1.60;;;;;;;14.75;28.47;102926.41;4964827;28;20057;-77
2022/05/08 10:44:51;;;;;;;7.78;0.70;;;;;;;14.10;28.83;102928.81;4964849;28;20070;-78
2022/05/08 10:47:33;;;;;;;11.20;1.02;;;;;;;14.84;28.86;102925.31;4967879;28;20528;-82
2022/05/08 10:50:04;;;;;;;3.33;0.70;;;;;;;15.44;27.33;102925.47;4966300;28;20086;-79
2022/05/08 10:52:30;;;;;;;4.60;0.70;;;;;;;16.20;26.92;102922.41;4965481;28;20045;-79
2022/05/08 10:54:57;;;;;;;7.28;0.50;;;;;;;15.95;25.78;102919.59;4964364;28;20030;-79
2022/05/08 10:57:36;;;;;;;5.88;0.57;;;;;;;15.28;27.01;102927.69;4982277;28;20507;-79
2022/05/08 11:00:05;;;;;;;6.95;1.08;;;;;;;15.14;27.74;102931.53;4964365;28;20053;-78
2022/05/08 11:02:56;;;;;;;8.23;0.50;;;;;;;15.88;26.87;102937.38;4942530;28;20041;-78
2022/05/08 11:05:44;;;;;;;8.50;1.10;;;;;;;15.37;26.62;102932.69;5002327;28;20081;-79
2022/05/08 11:08:12;;;;;;;12.90;2.38;;;;;;;15.74;26.43;102929.88;4985526;28;20523;-78
2022/05/08 11:10:42;;;;;;;4.03;0.93;;;;;;;15.59;26.83;102939.13;4963946;28;20031;-79
2022/05/08 11:13:12;;;;;;;8.35;0.70;;;;;;;15.25;26.84;102926.00;4962715;28;20065;-77
2022/05/08 11:15:41;;;;;;;10.45;1.23;;;;;;;15.53;26.58;102939.28;4997734;28;20113;-80
2022/05/08 11:18:09;;;;;;;4.45;0.40;;;;;;;15.44;26.08;102934.28;4976213;28;20045;-80
2022/05/08 11:20:49;;;;;;;7.38;0.40;;;;;;;15.77;26.12;102936.84;4986155;28;20034;-76
2022/05/08 11:23:17;;;;;;;5.43;0.60;;;;;;;15.53;27.78;102933.16;4985791;28;20087;-79
2022/05/08 11:25:50;;;;;;;4.45;1.15;;;;;;;15.01;27.28;102930.13;4997891;28;20050;-78
2022/05/08 11:28:20;;;;;;;6.80;0.98;;;;;;;15.34;28.03;102933.66;4988802;28;20038;-77
2022/05/08 11:30:46;;;;;;;4.22;0.70;;;;;;;15.76;27.67;102932.47;4980588;28;20053;-78
2022/05/08 11:36:06;;;;;;;9.80;1.45;;;;;;;14.50;28.60;102926.16;4981352;28;20049;-78
2022/05/08 11:38:45;;;;;;;6.35;0.70;;;;;;;15.13;28.38;102932.44;4963996;28;20049;-78
2022/05/08 11:41:13;;;;;;;12.13;1.20;;;;;;;15.24;28.24;102928.66;4966757;28;20038;-78
2022/05/08 11:43:43;;;;;;;5.75;0.85;;;;;;;14.96;28.20;102934.66;4987010;28;20058;-79
2022/05/08 11:46:15;;;;;;;10.88;1.52;;;;;;;14.79;28.43;102931.59;4980967;28;20212;-79
2022/05/08 11:48:47;;;;;;;8.70;0.70;;;;;;;15.81;28.27;102925.28;4979119;28;20050;-77
2022/05/08 11:51:15;;;;;;;13.07;1.25;;;;;;;15.63;26.91;102924.06;4997434;28;20100;-79
2022/05/08 11:53:49;;;;;;;6.20;0.77;;;;;;;15.91;25.86;102932.03;4982016;28;20137;-78
2022/05/08 11:56:27;;;;;;;5.13;0.90;;;;;;;15.70;26.69;102922.13;4981902;28;20137;-80